Time;durP1;ratioP1;P1;durP2;ratioP2;P2;SDS_P1;SDS_P2;PMS_P1;PMS_P2;Temp;Humidity;BMP_temperature;BMP_pressure;BME280_temperature;BME280_humidity;BME280_pressure;Samples;Min_cycle;Max_cycle;Signal;HPM_P1;HPM_P2
2022/07/25 00:00:16;;;;;;;9.33;8.37;;;;;;;21.52;65.33;99224.81;4948945;28;20217;-75
2022/07/25 00:02:42;;;;;;;9.13;8.23;;;;;;;21.52;65.19;99208.78;4951153;29;20838;-75
2022/07/25 00:05:08;;;;;;;11.60;9.20;;;;;;;21.55;65.09;99208.44;4950172;28;20222;-75
2022/07/25 00:07:33;;;;;;;8.83;7.93;;;;;;;21.55;65.10;99208.44;4951600;28;20645;-75
2022/07/25 00:09:58;;;;;;;9.70;8.53;;;;;;;21.58;65.06;99205.41;4951458;28;20533;-75
2022/07/25 00:12:24;;;;;;;10.00;9.03;;;;;;;21.58;65.13;99201.91;4951320;28;20595;-75
2022/07/25 00:14:49;;;;;;;11.77;9.27;;;;;;;21.58;65.22;99209.91;4951280;28;20223;-75
2022/07/25 00:17:15;;;;;;;10.40;8.17;;;;;;;21.59;65.33;99207.03;4950000;28;20234;-75
2022/07/25 00:19:40;;;;;;;10.07;9.07;;;;;;;21.60;65.01;99199.84;4950870;28;20228;-75
2022/07/25 00:22:06;;;;;;;9.97;8.97;;;;;;;21.57;65.31;99197.53;4950278;28;20203;-75
2022/07/25 00:24:31;;;;;;;8.53;7.63;;;;;;;21.53;65.52;99197.06;4951224;28;20217;-75
2022/07/25 00:26:57;;;;;;;7.70;7.00;;;;;;;21.49;65.67;99197.59;4950035;28;20226;-76
2022/07/25 00:29:22;;;;;;;9.43;8.50;;;;;;;21.35;66.11;99200.00;4948463;29;20309;-76
2022/07/25 00:31:47;;;;;;;10.30;8.80;;;;;;;21.20;66.45;99197.25;4948546;28;20301;-76
2022/07/25 00:34:13;;;;;;;8.87;8.07;;;;;;;21.08;66.87;99187.97;4951029;28;20322;-76
2022/07/25 00:36:38;;;;;;;12.40;9.83;;;;;;;21.01;67.02;99184.34;4949062;28;20289;-76
2022/07/25 00:39:04;;;;;;;10.30;8.40;;;;;;;20.96;67.26;99189.38;4951254;28;20214;-76
2022/07/25 00:41:29;;;;;;;9.07;8.00;;;;;;;20.93;67.20;99193.25;4951357;29;20323;-76
2022/07/25 00:43:55;;;;;;;10.00;8.33;;;;;;;20.93;67.33;99190.56;4951127;28;20305;-76
2022/07/25 00:46:20;;;;;;;11.03;8.90;;;;;;;20.91;67.61;99189.06;4950535;29;20342;-76
2022/07/25 00:48:45;;;;;;;9.93;8.93;;;;;;;20.88;67.63;99184.09;4947905;29;20233;-76
2022/07/25 00:51:11;;;;;;;10.80;9.17;;;;;;;20.85;67.79;99185.28;4950497;28;20234;-76
2022/07/25 00:53:38;;;;;;;10.10;9.00;;;;;;;20.80;68.17;99187.63;4950977;29;20659;-76
2022/07/25 00:56:05;;;;;;;9.23;8.20;;;;;;;20.72;68.35;99185.81;4943301;28;20218;-76
2022/07/25 00:58:31;;;;;;;8.33;7.50;;;;;;;20.66;68.73;99185.69;4949214;29;20641;-76
2022/07/25 01:00:57;;;;;;;11.60;8.80;;;;;;;20.58;68.90;99183.03;4950450;29;20449;-76
2022/07/25 01:03:22;;;;;;;10.40;9.32;;;;;;;20.54;69.41;99185.22;4941069;28;20549;-76
2022/07/25 01:05:49;;;;;;;11.10;8.97;;;;;;;20.51;69.68;99174.84;4949631;29;20680;-76
2022/07/25 01:08:19;;;;;;;10.00;9.20;;;;;;;20.48;69.65;99183.22;4947055;28;20599;-76
2022/07/25 01:10:46;;;;;;;9.07;8.00;;;;;;;20.43;69.68;99165.03;4947904;28;20481;-76
2022/07/25 01:13:12;;;;;;;11.70;10.20;;;;;;;20.42;69.67;99166.06;4950064;28;20457;-76
2022/07/25 01:15:37;;;;;;;8.60;7.70;;;;;;;20.45;69.64;99159.53;4950376;29;20474;-76
2022/07/25 01:18:03;;;;;;;10.60;8.17;;;;;;;20.48;69.71;99157.34;4948743;29;20202;-76
2022/07/25 01:20:30;;;;;;;10.03;9.03;;;;;;;20.49;69.42;99158.19;4949074;29;20745;-76
2022/07/25 01:22:56;;;;;;;9.80;8.93;;;;;;;20.50;69.42;99157.19;4948083;28;20294;-76
2022/07/25 01:25:23;;;;;;;9.80;8.80;;;;;;;20.51;69.42;99145.50;4950202;28;20490;-76
2022/07/25 01:27:50;;;;;;;11.07;9.00;;;;;;;20.54;69.44;99151.34;4950142;28;20957;-75
2022/07/25 01:30:16;;;;;;;10.33;9.20;;;;;;;20.55;69.41;99142.38;4951033;28;20565;-76
2022/07/25 01:32:43;;;;;;;9.40;7.90;;;;;;;20.55;69.43;99142.38;4950456;29;20555;-76
2022/07/25 01:35:09;;;;;;;13.70;9.40;;;;;;;20.51;69.53;99143.66;4950158;28;20850;-76
2022/07/25 01:37:35;;;;;;;9.53;8.53;;;;;;;20.44;69.77;99140.03;4948328;29;20497;-76
2022/07/25 01:40:01;;;;;;;10.20;9.20;;;;;;;20.45;69.76;99138.19;4948372;29;20463;-76
2022/07/25 01:42:33;;;;;;;10.03;9.10;;;;;;;20.44;70.08;99148.06;4957574;28;20473;-76
2022/07/25 01:44:59;;;;;;;10.03;9.03;;;;;;;20.37;70.32;99148.91;4969112;28;20596;-76
2022/07/25 01:47:25;;;;;;;10.23;9.33;;;;;;;20.25;70.44;99145.75;4969071;28;20485;-76
2022/07/25 01:49:50;;;;;;;10.20;9.13;;;;;;;20.14;70.60;99144.28;4966186;28;20986;-76
2022/07/25 01:52:15;;;;;;;10.10;8.60;;;;;;;20.02;70.81;99145.66;4969062;28;20286;-75
2022/07/25 01:54:41;;;;;;;8.87;8.00;;;;;;;19.92;70.87;99145.81;4967525;28;20206;-76
2022/07/25 01:57:07;;;;;;;10.20;9.23;;;;;;;19.85;70.96;99135.03;4967104;28;20254;-76
2022/07/25 01:59:37;;;;;;;11.00;9.13;;;;;;;19.82;70.98;99139.84;4964023;28;20741;-76
2022/07/25 02:02:04;;;;;;;10.77;9.70;;;;;;;19.88;71.67;99147.19;4965921;28;20497;-75
2022/07/25 02:04:30;;;;;;;10.33;9.30;;;;;;;19.86;71.61;99138.50;4967902;28;20741;-75
2022/07/25 02:06:56;;;;;;;11.03;10.03;;;;;;;19.87;71.31;99137.50;4968842;28;20578;-75
2022/07/25 02:09:21;;;;;;;10.40;8.67;;;;;;;19.88;71.23;99134.69;4954329;28;21074;-76
2022/07/25 02:11:47;;;;;;;10.40;9.40;;;;;;;19.88;71.05;99136.53;4968827;28;20588;-76
2022/07/25 02:14:12;;;;;;;9.83;8.83;;;;;;;19.87;71.07;99132.16;4968039;28;20298;-76
2022/07/25 02:16:37;;;;;;;9.13;8.33;;;;;;;19.88;70.97;99118.69;4967753;28;20226;-76
2022/07/25 02:19:03;;;;;;;8.60;7.70;;;;;;;19.95;70.79;99128.66;4965591;28;20252;-76
2022/07/25 02:21:29;;;;;;;11.00;8.27;;;;;;;20.03;70.60;99123.31;4970147;28;20586;-76
2022/07/25 02:23:54;;;;;;;8.40;7.53;;;;;;;20.07;70.38;99129.97;4972690;28;20608;-76
2022/07/25 02:26:20;;;;;;;14.87;8.87;;;;;;;20.02;70.46;99119.81;4972203;28;20282;-76
2022/07/25 02:28:45;;;;;;;10.23;9.10;;;;;;;19.96;70.58;99117.03;4972154;28;20225;-76
2022/07/25 02:31:10;;;;;;;10.70;9.70;;;;;;;19.88;71.18;99117.84;4968917;28;20477;-75
2022/07/25 02:33:36;;;;;;;12.40;11.20;;;;;;;19.80;71.73;99110.72;4970238;28;20485;-76
2022/07/25 02:36:01;;;;;;;10.73;9.63;;;;;;;19.72;72.09;99117.88;4972107;28;20241;-76
2022/07/25 02:38:27;;;;;;;10.37;9.27;;;;;;;19.66;72.15;99119.38;4971262;28;20229;-76
2022/07/25 02:40:52;;;;;;;11.00;9.40;;;;;;;19.66;71.79;99125.53;4972594;28;20477;-76
2022/07/25 02:43:19;;;;;;;10.90;9.83;;;;;;;19.69;71.88;99129.72;4972521;28;20201;-76
2022/07/25 02:45:45;;;;;;;11.03;9.93;;;;;;;19.74;71.85;99118.53;4972176;28;20236;-76
2022/07/25 02:48:12;;;;;;;12.17;8.60;;;;;;;19.77;71.53;99116.38;4971271;28;20480;-76
2022/07/25 02:50:37;;;;;;;10.70;9.60;;;;;;;19.82;71.40;99113.19;4903514;28;20495;-76
2022/07/25 02:53:03;;;;;;;11.23;8.87;;;;;;;19.85;71.15;99108.38;4953508;28;20445;-75
2022/07/25 02:55:29;;;;;;;9.90;9.00;;;;;;;19.84;71.18;99105.84;4952860;29;20911;-76
2022/07/25 02:57:55;;;;;;;10.93;8.60;;;;;;;19.81;71.47;99103.53;4952524;28;20255;-76
2022/07/25 03:00:20;;;;;;;10.47;9.47;;;;;;;19.80;71.48;99108.03;4951023;28;20531;-76
2022/07/25 03:02:45;;;;;;;12.83;9.30;;;;;;;19.78;71.45;99115.38;4951946;28;20235;-75
2022/07/25 03:05:13;;;;;;;11.57;9.90;;;;;;;19.75;71.54;99113.03;4952446;28;20273;-75
2022/07/25 03:07:39;;;;;;;10.90;8.97;;;;;;;19.74;71.40;99115.84;4952620;28;20234;-76
2022/07/25 03:10:06;;;;;;;11.33;10.20;;;;;;;19.69;71.58;99126.22;4951798;28;20479;-75
2022/07/25 03:12:31;;;;;;;11.50;9.10;;;;;;;19.62;72.14;99123.34;4952614;28;20562;-76
2022/07/25 03:14:58;;;;;;;10.07;9.07;;;;;;;19.61;71.90;99116.38;4952888;28;20559;-76
2022/07/25 03:17:24;;;;;;;10.33;9.33;;;;;;;19.62;71.97;99112.69;4945747;29;20575;-76
2022/07/25 03:19:50;;;;;;;10.70;9.70;;;;;;;19.55;71.95;99107.22;4950838;28;20477;-76
2022/07/25 03:22:16;;;;;;;9.90;9.00;;;;;;;19.48;72.37;99105.38;4955786;28;20495;-76
2022/07/25 03:24:42;;;;;;;12.40;10.20;;;;;;;19.45;72.26;99101.22;4952626;28;20213;-76
2022/07/25 03:27:08;;;;;;;10.70;8.60;;;;;;;19.41;72.43;99105.19;4950726;28;20561;-76
2022/07/25 03:29:34;;;;;;;9.73;8.50;;;;;;;19.39;72.50;99110.72;4950449;29;20489;-75
2022/07/25 03:31:59;;;;;;;14.00;8.90;;;;;;;19.38;72.28;99111.69;4949538;28;20492;-76
2022/07/25 03:34:24;;;;;;;9.97;8.97;;;;;;;19.39;72.41;99112.53;4951470;28;20213;-75
2022/07/25 03:36:50;;;;;;;10.10;9.10;;;;;;;19.39;72.39;99107.22;4950460;28;20724;-76
2022/07/25 03:39:15;;;;;;;11.07;9.30;;;;;;;19.39;72.22;99104.56;4949431;28;20247;-76
2022/07/25 03:41:41;;;;;;;11.50;9.80;;;;;;;19.34;72.20;99104.22;4951890;28;20208;-76
2022/07/25 03:44:07;;;;;;;10.93;9.87;;;;;;;19.30;72.28;99102.88;4952149;29;20562;-76
2022/07/25 03:46:33;;;;;;;10.53;9.53;;;;;;;19.31;72.38;99107.19;4951940;28;20226;-76
2022/07/25 03:48:58;;;;;;;10.10;9.10;;;;;;;19.32;72.14;99104.38;4948321;28;20710;-76
2022/07/25 03:51:23;;;;;;;10.60;9.60;;;;;;;19.30;72.10;99097.53;4950380;28;20220;-76
2022/07/25 03:54:01;;;;;;;10.63;9.53;;;;;;;19.26;72.17;99091.72;4951866;29;20690;-76
2022/07/25 03:56:41;;;;;;;10.27;9.20;;;;;;;19.25;72.28;99084.72;4949858;29;20283;-76
2022/07/25 03:59:08;;;;;;;11.70;10.50;;;;;;;19.24;72.38;99086.56;4951458;28;20969;-75
2022/07/25 04:01:34;;;;;;;12.60;11.20;;;;;;;19.20;72.78;99092.41;4950220;28;20478;-75
2022/07/25 04:04:00;;;;;;;12.40;11.13;;;;;;;19.25;73.53;99098.03;4950951;28;20487;-75
2022/07/25 04:06:26;;;;;;;9.50;8.60;;;;;;;19.24;73.44;99105.19;4951950;28;20594;-75
2022/07/25 04:08:51;;;;;;;10.50;9.50;;;;;;;19.25;73.35;99103.34;4952097;28;20549;-75
2022/07/25 04:11:17;;;;;;;12.10;10.67;;;;;;;19.26;72.96;99106.88;4951658;28;20216;-75
2022/07/25 04:13:42;;;;;;;10.70;9.60;;;;;;;19.26;73.02;99106.88;4951589;28;20260;-75
2022/07/25 04:16:08;;;;;;;11.73;10.53;;;;;;;19.24;72.87;99104.38;4951447;28;20263;-75
2022/07/25 04:18:34;;;;;;;11.10;10.00;;;;;;;19.28;73.00;99095.06;4951317;28;20229;-75
2022/07/25 04:20:59;;;;;;;11.40;9.90;;;;;;;19.32;72.82;99106.22;4949491;28;20210;-75
2022/07/25 04:23:26;;;;;;;11.37;10.10;;;;;;;19.36;72.50;99097.72;4946538;28;20738;-75
2022/07/25 04:25:51;;;;;;;31.67;28.90;;;;;;;19.40;72.34;99098.22;4944158;29;20332;-75
2022/07/25 04:28:16;;;;;;;166.83;151.80;;;;;;;19.38;72.30;99086.91;4950436;28;20840;-75
2022/07/25 04:30:44;;;;;;;11.23;9.90;;;;;;;19.38;72.42;99087.72;4951579;28;20255;-76
2022/07/25 04:33:10;;;;;;;10.90;9.80;;;;;;;19.42;72.17;99089.06;4948955;28;20208;-75
2022/07/25 04:35:36;;;;;;;11.97;9.60;;;;;;;19.43;71.93;99087.22;4951505;28;21020;-77
2022/07/25 04:38:01;;;;;;;10.47;9.07;;;;;;;19.42;72.40;99093.56;5436489;23;20512;-77
2022/07/25 04:40:26;;;;;;;19.87;17.37;;;;;;;19.44;72.03;99091.53;4985188;28;20557;-77
2022/07/25 04:42:52;;;;;;;11.27;8.67;;;;;;;19.45;72.31;99093.22;4984663;28;20215;-77
2022/07/25 04:45:17;;;;;;;11.03;9.57;;;;;;;19.49;72.08;99086.53;4988733;28;20242;-77
2022/07/25 04:47:43;;;;;;;12.00;10.53;;;;;;;19.50;71.54;99090.91;4989766;28;20218;-77
2022/07/25 04:50:09;;;;;;;11.47;10.30;;;;;;;19.54;71.58;99084.22;4987562;28;20629;-77
2022/07/25 04:52:34;;;;;;;11.43;10.20;;;;;;;19.90;70.39;99083.84;4983338;28;20660;-77
2022/07/25 04:54:59;;;;;;;10.10;8.40;;;;;;;21.07;66.55;99084.03;4986498;28;20448;-78
2022/07/25 04:57:25;;;;;;;10.50;9.17;;;;;;;22.17;62.43;99078.16;4985402;28;20220;-78
2022/07/25 04:59:50;;;;;;;12.00;10.13;;;;;;;23.29;59.18;99067.13;4989615;28;20683;-78
2022/07/25 05:02:16;;;;;;;11.10;9.90;;;;;;;24.25;56.08;99073.59;4986868;28;20488;-78
2022/07/25 05:04:41;;;;;;;14.13;10.80;;;;;;;25.14;53.60;99064.59;4986519;28;20200;-78
2022/07/25 05:07:07;;;;;;;11.33;9.53;;;;;;;25.92;51.19;99063.13;4989580;28;20769;-78
2022/07/25 05:09:32;;;;;;;10.43;9.43;;;;;;;26.58;49.23;99068.34;4987503;28;20242;-78
2022/07/25 05:11:58;;;;;;;12.43;10.30;;;;;;;27.24;47.78;99059.03;4990604;28;20251;-78
2022/07/25 05:14:24;;;;;;;10.87;9.73;;;;;;;27.77;46.17;99065.84;4997139;28;20697;-78
2022/07/25 05:16:49;;;;;;;11.10;10.00;;;;;;;28.29;45.08;99052.84;5000706;28;20619;-79
2022/07/25 05:19:15;;;;;;;10.20;8.73;;;;;;;28.80;44.08;99053.47;4999770;28;20955;-78
2022/07/25 05:21:40;;;;;;;10.83;8.97;;;;;;;29.42;42.25;99058.56;4996767;28;20217;-78
2022/07/25 05:24:06;;;;;;;12.03;9.97;;;;;;;30.05;41.10;99051.63;4982174;28;20550;-79
2022/07/25 05:26:31;;;;;;;10.00;9.00;;;;;;;30.64;39.80;99041.47;4985096;28;20286;-79
2022/07/25 05:28:57;;;;;;;10.97;9.97;;;;;;;31.15;38.39;99036.19;4979956;28;20508;-79
2022/07/25 05:31:22;;;;;;;9.90;9.00;;;;;;;31.53;37.64;99030.84;4984349;28;20224;-79
2022/07/25 05:33:48;;;;;;;11.30;10.30;;;;;;;31.95;36.04;99035.00;4979462;28;20496;-79
2022/07/25 05:36:13;;;;;;;11.23;10.13;;;;;;;32.42;35.31;99028.22;4983254;28;20205;-79
2022/07/25 05:38:39;;;;;;;9.87;8.63;;;;;;;32.84;34.39;99025.72;4981980;28;20323;-79
2022/07/25 05:41:04;;;;;;;9.37;8.47;;;;;;;33.25;33.73;99035.06;4983944;28;20297;-79
2022/07/25 05:43:29;;;;;;;9.50;8.60;;;;;;;33.66;33.19;99038.13;4983704;28;20297;-79
2022/07/25 05:46:02;;;;;;;10.60;9.60;;;;;;;34.08;32.52;99025.53;4982897;28;20240;-79
2022/07/25 05:48:28;;;;;;;9.27;8.30;;;;;;;34.27;31.65;99032.19;4981873;28;20320;-79
2022/07/25 05:50:53;;;;;;;10.73;9.60;;;;;;;34.68;30.76;99021.41;4985399;28;21012;-79
2022/07/25 05:53:18;;;;;;;10.37;9.47;;;;;;;35.02;30.11;99018.16;4984284;28;20213;-80
2022/07/25 05:55:44;;;;;;;10.13;9.13;;;;;;;35.22;29.68;99010.00;4983240;28;20189;-78
2022/07/25 05:58:09;;;;;;;8.73;8.00;;;;;;;35.47;29.44;99014.63;4980213;28;20239;-79
2022/07/25 06:00:35;;;;;;;10.57;9.57;;;;;;;35.48;28.71;99012.69;4978483;28;20660;-79
2022/07/25 06:03:00;;;;;;;16.17;8.80;;;;;;;35.67;28.25;99010.22;4981574;28;20204;-78
2022/07/25 06:05:26;;;;;;;12.40;9.77;;;;;;;35.43;27.94;99015.44;4981361;28;20724;-78
2022/07/25 06:07:51;;;;;;;12.10;11.00;;;;;;;35.40;28.23;99014.09;4981289;28;20228;-79
2022/07/25 06:10:17;;;;;;;9.93;8.90;;;;;;;35.07;28.50;99012.75;4981972;28;20244;-78
2022/07/25 06:12:42;;;;;;;8.30;7.60;;;;;;;34.80;28.70;99007.50;4982635;28;20217;-78
2022/07/25 06:15:08;;;;;;;10.17;9.27;;;;;;;35.00;28.32;99007.53;4983575;28;20347;-78
2022/07/25 06:17:34;;;;;;;9.40;8.50;;;;;;;35.51;27.41;98997.69;4980736;28;20225;-79
2022/07/25 06:19:59;;;;;;;9.20;8.30;;;;;;;35.79;27.02;98991.63;4978634;28;20212;-79
2022/07/25 06:22:25;;;;;;;11.23;9.23;;;;;;;36.01;27.04;98996.72;4982995;28;20509;-79
2022/07/25 06:24:50;;;;;;;10.80;9.70;;;;;;;36.52;26.28;98998.44;4979758;28;20209;-78
2022/07/25 06:27:16;;;;;;;9.57;8.67;;;;;;;37.04;25.72;98994.25;4984518;28;20232;-79
2022/07/25 06:29:41;;;;;;;10.03;9.10;;;;;;;37.47;24.80;98988.94;4983701;28;20213;-79
2022/07/25 06:32:06;;;;;;;11.80;9.57;;;;;;;37.60;24.35;98992.94;4985782;28;20177;-79
2022/07/25 06:34:32;;;;;;;9.90;9.00;;;;;;;37.90;24.24;98985.47;4988128;28;20934;-79
2022/07/25 06:36:57;;;;;;;9.83;8.93;;;;;;;38.03;23.86;98982.84;4981922;28;20217;-79
2022/07/25 06:39:23;;;;;;;9.37;8.40;;;;;;;38.15;23.96;98976.94;4981477;28;20508;-79
2022/07/25 06:41:50;;;;;;;10.87;9.73;;;;;;;38.29;23.61;98980.59;4983693;28;20316;-79
2022/07/25 06:44:16;;;;;;;11.57;8.50;;;;;;;38.28;23.53;98978.94;4984837;28;20907;-80
2022/07/25 06:46:41;;;;;;;10.47;9.47;;;;;;;38.45;23.37;98970.22;4980521;28;20491;-79
2022/07/25 06:49:07;;;;;;;9.67;8.77;;;;;;;38.64;23.09;98972.94;4982673;28;20206;-79
2022/07/25 06:51:32;;;;;;;10.30;9.30;;;;;;;38.58;23.51;98978.84;4982118;28;20981;-79
2022/07/25 06:53:58;;;;;;;10.03;9.13;;;;;;;38.04;23.89;98980.91;4979201;28;20678;-79
2022/07/25 06:56:23;;;;;;;12.43;9.77;;;;;;;37.36;24.80;98981.91;4981065;28;20197;-79
2022/07/25 06:58:49;;;;;;;9.90;8.90;;;;;;;37.46;24.70;98984.56;4980439;28;20568;-79
2022/07/25 07:01:14;;;;;;;10.03;9.00;;;;;;;37.67;24.52;98987.09;4981153;28;20220;-79
2022/07/25 07:03:40;;;;;;;9.53;8.63;;;;;;;37.76;24.47;98988.09;4985084;28;20209;-79
2022/07/25 07:06:08;;;;;;;11.20;9.87;;;;;;;38.13;24.15;98984.63;4981345;28;20607;-79
2022/07/25 07:08:33;;;;;;;10.77;9.77;;;;;;;38.22;24.05;98973.84;4983271;28;20264;-79
2022/07/25 07:10:59;;;;;;;9.00;8.10;;;;;;;38.00;24.70;98971.66;4988196;28;20547;-79
2022/07/25 07:13:24;;;;;;;10.23;9.10;;;;;;;38.38;23.51;98975.25;4985972;28;20217;-80
2022/07/25 07:15:50;;;;;;;11.33;9.63;;;;;;;38.93;23.38;98975.53;4986585;28;20209;-79
2022/07/25 07:18:17;;;;;;;9.43;8.63;;;;;;;39.34;22.47;98972.09;4985805;28;20697;-80
2022/07/25 07:20:43;;;;;;;9.97;8.93;;;;;;;39.66;22.20;98978.63;4986109;28;20208;-80
2022/07/25 07:23:08;;;;;;;9.93;9.03;;;;;;;40.00;22.10;98970.00;4993865;28;20529;-80
2022/07/25 07:25:34;;;;;;;10.40;9.40;;;;;;;40.13;22.08;98973.03;4986877;28;20340;-80
2022/07/25 07:27:59;;;;;;;9.40;8.60;;;;;;;40.28;21.83;98966.41;4988650;28;20329;-80
2022/07/25 07:30:25;;;;;;;9.10;8.30;;;;;;;40.48;21.85;98974.19;4987245;28;20247;-80
2022/07/25 07:32:51;;;;;;;11.33;10.10;;;;;;;40.59;21.87;98963.75;4988921;28;20217;-80
2022/07/25 07:35:17;;;;;;;11.70;9.27;;;;;;;40.19;22.29;98969.88;4985229;28;20282;-80
2022/07/25 07:37:44;;;;;;;9.97;9.07;;;;;;;40.11;22.54;98970.59;4984660;28;20311;-80
2022/07/25 07:40:12;;;;;;;11.63;10.53;;;;;;;39.99;22.77;98968.34;4988401;28;20831;-80
2022/07/25 07:42:41;;;;;;;9.73;8.93;;;;;;;39.89;23.06;98967.75;4987039;28;20467;-79
2022/07/25 07:45:26;;;;;;;10.30;9.33;;;;;;;39.77;23.48;98968.28;4985945;28;20475;-80
2022/07/25 07:47:53;;;;;;;10.67;9.67;;;;;;;39.57;23.72;98966.75;4982727;28;21030;-80
2022/07/25 07:50:21;;;;;;;10.50;9.50;;;;;;;39.28;24.14;98966.97;4987487;28;20456;-80
2022/07/25 07:52:47;;;;;;;10.00;9.00;;;;;;;39.60;23.61;98968.88;4986417;28;20956;-79
2022/07/25 07:57:58;;;;;;;8.80;8.10;;;;;;;40.42;22.79;98970.72;4983517;28;20480;-79
2022/07/25 08:00:26;;;;;;;10.20;9.20;;;;;;;40.73;22.84;98972.81;4984538;28;21135;-79
2022/07/25 08:02:53;;;;;;;8.80;7.90;;;;;;;41.04;22.63;98970.09;4986444;28;20483;-80
2022/07/25 08:05:23;;;;;;;9.23;8.20;;;;;;;41.49;22.06;98964.53;4982939;28;20876;-79
2022/07/25 08:07:50;;;;;;;10.00;7.80;;;;;;;41.77;21.34;98972.56;4980998;28;20498;-79
2022/07/25 08:10:18;;;;;;;9.20;8.40;;;;;;;41.79;21.09;98965.63;4982685;28;20460;-79
2022/07/25 08:12:43;;;;;;;9.20;8.40;;;;;;;41.55;21.34;98971.53;4982986;28;22057;-80
2022/07/25 08:15:09;;;;;;;9.37;8.20;;;;;;;41.37;21.41;98961.53;4984992;28;20539;-80
2022/07/25 08:17:35;;;;;;;7.83;7.23;;;;;;;41.22;20.73;98965.53;4982580;28;20225;-79
2022/07/25 08:20:05;;;;;;;8.20;7.50;;;;;;;40.86;19.79;98965.59;4980569;28;20229;-79
2022/07/25 08:22:36;;;;;;;7.67;6.33;;;;;;;40.55;18.79;98965.50;4984422;28;20304;-79
2022/07/25 08:25:01;;;;;;;6.47;5.77;;;;;;;40.40;18.74;98964.75;4985288;28;20518;-79
2022/07/25 08:27:26;;;;;;;7.60;6.27;;;;;;;40.55;18.41;98973.75;4981739;28;20487;-78
2022/07/25 08:29:52;;;;;;;8.33;7.23;;;;;;;40.44;18.30;98974.00;4981285;28;20673;-78
2022/07/25 08:32:17;;;;;;;7.20;6.60;;;;;;;40.19;18.00;98969.88;4979107;28;20201;-78
2022/07/25 08:34:42;;;;;;;7.53;6.93;;;;;;;39.95;18.80;98961.84;4984412;28;20244;-80
2022/07/25 08:37:08;;;;;;;7.80;7.10;;;;;;;39.91;18.67;98963.56;4981026;28;20648;-79
2022/07/25 08:39:33;;;;;;;7.60;6.90;;;;;;;39.33;19.11;98970.47;4982669;28;20240;-78
2022/07/25 08:42:00;;;;;;;8.80;6.37;;;;;;;38.45;20.12;98981.19;4985328;28;20259;-79
2022/07/25 08:44:30;;;;;;;8.30;7.07;;;;;;;37.55;21.53;98974.63;4983899;28;20209;-79
2022/07/25 08:46:56;;;;;;;8.13;7.33;;;;;;;36.95;22.07;98974.06;4984185;28;20571;-79
2022/07/25 08:49:22;;;;;;;10.80;7.30;;;;;;;36.70;22.65;98967.69;4983617;28;20467;-79
2022/07/25 08:51:49;;;;;;;9.03;7.20;;;;;;;36.58;22.71;98977.34;4983398;28;20836;-79
2022/07/25 08:54:15;;;;;;;7.23;6.63;;;;;;;36.47;22.83;98973.84;4983923;28;20761;-79
2022/07/25 08:56:41;;;;;;;8.23;7.27;;;;;;;36.33;22.98;98966.25;4982097;28;20468;-79
2022/07/25 08:59:08;;;;;;;7.97;7.17;;;;;;;36.25;22.75;98975.06;4983484;28;20479;-79
2022/07/25 09:01:34;;;;;;;7.10;6.10;;;;;;;36.07;23.13;98986.63;4982156;28;20259;-81
2022/07/25 09:04:00;;;;;;;7.80;7.10;;;;;;;36.06;22.90;98979.53;4973664;28;20488;-80
2022/07/25 09:06:25;;;;;;;11.13;7.13;;;;;;;36.13;22.96;98971.81;4982007;28;20283;-79
2022/07/25 09:08:52;;;;;;;6.83;6.20;;;;;;;36.25;23.22;98957.84;4976975;28;20527;-79
2022/07/25 09:11:35;;;;;;;7.37;6.60;;;;;;;36.39;23.09;98968.97;4981740;28;20228;-78
2022/07/25 09:14:11;;;;;;;6.57;5.97;;;;;;;36.38;23.01;98964.59;4982571;28;20486;-78
2022/07/25 09:16:42;;;;;;;6.87;6.27;;;;;;;36.33;23.17;98963.53;4983373;28;20460;-79
2022/07/25 09:19:15;;;;;;;7.03;6.40;;;;;;;36.39;23.14;98969.78;4982932;28;20539;-79
2022/07/25 09:21:42;;;;;;;8.10;7.30;;;;;;;36.32;22.77;98975.56;4983181;28;20499;-80
2022/07/25 09:24:14;;;;;;;7.60;6.90;;;;;;;36.16;23.39;98965.81;4987126;28;20463;-79
2022/07/25 09:26:47;;;;;;;6.80;6.20;;;;;;;36.10;23.42;98965.00;4983133;28;20492;-78
2022/07/25 09:29:33;;;;;;;7.97;7.17;;;;;;;36.25;23.40;98961.38;4981545;28;20467;-79
2022/07/25 09:32:00;;;;;;;7.10;6.50;;;;;;;36.32;23.53;98961.06;4980530;28;20542;-80
2022/07/25 09:34:36;;;;;;;8.00;6.53;;;;;;;36.52;23.49;98965.59;4982530;28;20463;-80
2022/07/25 09:37:13;;;;;;;7.37;6.67;;;;;;;36.63;22.67;98969.09;4976415;28;21049;-80
2022/07/25 09:39:44;;;;;;;7.63;5.90;;;;;;;36.45;22.98;98959.63;4973429;28;21224;-80
2022/07/25 09:42:22;;;;;;;6.83;6.23;;;;;;;36.49;22.86;98960.69;4984422;28;20460;-80
2022/07/25 09:45:11;;;;;;;5.87;5.40;;;;;;;36.69;22.40;98960.56;4983497;28;20809;-80
2022/07/25 09:47:58;;;;;;;8.20;7.50;;;;;;;36.66;22.54;98966.63;4978293;28;20602;-80
2022/07/25 09:50:25;;;;;;;8.00;6.80;;;;;;;36.69;22.63;98960.56;4980475;28;20472;-80
2022/07/25 09:52:53;;;;;;;6.77;6.20;;;;;;;36.69;22.83;98955.09;4982968;28;20845;-81
2022/07/25 09:55:20;;;;;;;6.73;6.13;;;;;;;36.72;22.55;98951.78;4983655;28;20657;-79
2022/07/25 09:57:47;;;;;;;6.60;6.10;;;;;;;36.82;22.09;98953.63;4983374;28;20480;-78
2022/07/25 10:00:18;;;;;;;6.63;6.00;;;;;;;36.81;21.80;98962.13;4982392;28;20802;-82
2022/07/25 10:03:01;;;;;;;7.13;6.27;;;;;;;36.82;21.81;98948.16;4984764;28;20461;-80
2022/07/25 10:06:14;;;;;;;7.77;6.37;;;;;;;36.83;22.04;98947.03;4984612;28;20472;-80
2022/07/25 10:08:40;;;;;;;7.27;6.47;;;;;;;36.93;22.30;98943.41;4935641;28;20492;-80
2022/07/25 10:11:26;;;;;;;7.00;6.40;;;;;;;37.04;22.19;98950.44;4984209;28;20834;-78
2022/07/25 10:13:53;;;;;;;7.13;6.53;;;;;;;37.27;21.99;98953.50;4982660;28;20532;-79
2022/07/25 10:16:23;;;;;;;6.87;6.27;;;;;;;37.50;21.89;98941.78;4982754;28;20459;-78
2022/07/25 10:18:52;;;;;;;6.77;6.07;;;;;;;37.56;21.93;98942.56;4980912;28;20488;-79
2022/07/25 10:21:18;;;;;;;7.30;6.70;;;;;;;37.69;21.81;98941.03;4985251;28;20479;-79
2022/07/25 10:23:45;;;;;;;6.10;5.60;;;;;;;37.73;21.63;98940.16;4984127;28;20470;-79
2022/07/25 10:26:18;;;;;;;11.13;6.70;;;;;;;37.76;21.23;98938.78;4984347;28;20492;-80
2022/07/25 10:28:46;;;;;;;6.73;6.13;;;;;;;37.56;21.33;98945.28;4981910;28;20483;-81
2022/07/25 10:31:16;;;;;;;6.53;6.03;;;;;;;37.44;21.50;98942.94;4979530;28;20511;-79
2022/07/25 10:33:42;;;;;;;6.13;5.63;;;;;;;37.24;21.97;98941.25;4984990;28;20456;-79
2022/07/25 10:36:09;;;;;;;6.10;5.60;;;;;;;36.81;22.19;98937.47;4985198;28;20975;-81
2022/07/25 10:38:38;;;;;;;8.20;6.33;;;;;;;36.49;22.38;98942.34;5001382;23;20249;-76
2022/07/25 10:41:04;;;;;;;7.10;6.50;;;;;;;36.31;22.92;98948.50;4975220;28;20452;-76
2022/07/25 10:43:36;;;;;;;5.70;5.30;;;;;;;36.49;23.29;98938.81;4982331;28;20467;-76
2022/07/25 10:46:11;;;;;;;9.07;6.60;;;;;;;36.47;23.32;98941.81;4986585;28;20233;-76
2022/07/25 10:48:37;;;;;;;7.43;6.53;;;;;;;36.27;23.95;98956.47;4982108;28;20566;-76
2022/07/25 10:51:11;;;;;;;7.43;6.73;;;;;;;36.23;23.93;98949.09;4985720;28;20990;-77
2022/07/25 10:53:43;;;;;;;7.70;6.90;;;;;;;36.50;23.93;98940.44;4985399;28;20220;-77
2022/07/25 10:56:13;;;;;;;7.40;6.80;;;;;;;36.77;23.67;98939.97;4984203;28;20498;-76
2022/07/25 10:58:43;;;;;;;7.90;7.10;;;;;;;36.93;23.68;98932.47;4983932;28;20487;-77
2022/07/25 11:01:08;;;;;;;6.87;6.27;;;;;;;37.08;23.71;98934.25;4970642;28;20777;-77
2022/07/25 11:03:33;;;;;;;7.83;7.23;;;;;;;37.12;23.37;98930.66;4985020;28;20494;-76
2022/07/25 11:05:59;;;;;;;7.63;7.03;;;;;;;37.29;23.36;98938.41;4983353;28;20615;-77
2022/07/25 11:08:32;;;;;;;7.10;6.50;;;;;;;37.43;22.98;98939.38;4982869;28;20291;-76
2022/07/25 11:10:57;;;;;;;7.10;6.50;;;;;;;37.62;22.86;98933.19;4983890;28;20201;-76
2022/07/25 11:13:23;;;;;;;6.43;5.83;;;;;;;37.61;22.72;98931.53;4983576;28;20482;-77
2022/07/25 11:15:48;;;;;;;7.43;6.83;;;;;;;37.47;22.63;98922.38;4982816;28;20197;-77
2022/07/25 11:18:14;;;;;;;11.20;6.80;;;;;;;37.24;22.84;98934.91;4979823;28;20579;-76
2022/07/25 11:20:39;;;;;;;6.80;6.20;;;;;;;36.97;23.64;98928.03;4981428;28;20802;-77
2022/07/25 11:23:05;;;;;;;7.20;6.13;;;;;;;36.78;23.85;98916.97;4985221;28;20255;-77
2022/07/25 11:25:30;;;;;;;6.80;5.80;;;;;;;36.56;23.92;98922.91;4984764;28;20221;-76
2022/07/25 11:27:58;;;;;;;8.30;6.67;;;;;;;36.39;24.13;98917.81;4983453;28;20756;-76
2022/07/25 11:30:24;;;;;;;6.67;5.90;;;;;;;36.44;24.06;98914.22;4982430;28;20209;-76